Flight Track Log - Related Links

Times and Time Zones

All times are in EDT time to prevent confusion due to time zone crossing. See the AAL794 flight status page for this flight to view local times or setup timezone preferences in your user account.

Time Position Orientation Groundspeed Altitude Reporting Facility
EDT Latitude Longitude Course Direction KTS MPH feet Rate Location/Type
Mon 09:16:56 PM 36.1142 -115.1450 90° East 182 209 3,000  Level Los Angeles Center
Mon 09:18:27 PM 36.1344 -115.0397 77° East 246 283 5,100 1,586 Climbing Los Angeles Center
Mon 09:19:00 PM 36.1768 -114.7229 70° East  Level FlightAware Approximate
Mon 09:19:16 PM 36.1436 -114.9622 82° East 272 313 6,700  Level Los Angeles Center
Mon 09:20:00 PM 36.1834 -114.5725 90° East  Level FlightAware Approximate
Mon 09:20:22 PM 36.1536 -114.8603 83° East 285 328 9,400  Level Los Angeles Center
Mon 09:21:00 PM 36.1833 -114.4207 90° East  Level FlightAware Approximate
Mon 09:21:31 PM 36.1583 -114.7478 87° East 303 349 10,900  Level Los Angeles Center
Mon 09:22:00 PM 36.1833 -114.2689 90° East  Level FlightAware Approximate
Mon 09:22:33 PM 36.1672 -114.6242 85° East 353 406 12,100  Level Los Angeles Center
Mon 09:23:35 PM 36.1767 -114.4614 86° East 392 451 14,600 2,177 Climbing Los Angeles Center
Mon 09:24:37 PM 36.1864 -114.3211 85° East 406 467 16,600 1,902 Climbing Los Angeles Center
Mon 09:25:38 PM 36.1989 -114.1775 84° East 418 481 18,500 1,659 Climbing Los Angeles Center
Mon 09:26:40 PM 36.2172 -114.0292 81° East 432 497 20,000 1,355 Climbing Los Angeles Center
Mon 09:27:42 PM 36.2358 -113.8778 81° East 442 509 21,300 1,268 Climbing Los Angeles Center
Mon 09:28:43 PM 36.2539 -113.7211 82° East 454 522 22,600 1,220 Climbing Los Angeles Center
Mon 09:29:45 PM 36.2717 -113.5617 82° East 463 533 23,800 1,065 Climbing Los Angeles Center
Mon 09:30:47 PM 36.2906 -113.3983 82° East 475 547 24,800 1,268 Climbing Los Angeles Center
Mon 09:31:48 PM 36.3131 -113.2211 81° East 487 560 26,400 1,289 Climbing Los Angeles Center
Mon 09:33:02 PM 36.3650 -113.0767 66° East 464 534 27,700 1,314 Climbing Los Angeles Center
Mon 09:34:05 PM 36.4411 -112.8756 65° Northeast 461 531 29,400 1,452 Climbing Los Angeles Center
Mon 09:35:06 PM 36.4928 -112.7322 66° East 459 528 30,700 787 Climbing Los Angeles Center
Mon 09:36:07 PM 36.5456 -112.5914 65° Northeast 454 522 31,000 146 Climbing Los Angeles Center
Mon 09:37:09 PM 36.5981 -112.4472 66° East 458 527 31,000  Level Los Angeles Center
Mon 09:38:23 PM 36.6592 -112.2775 66° East 453 521 31,000  Level Los Angeles Center
Mon 09:39:24 PM 36.7111 -112.1353 65° Northeast 453 521 31,000  Level Los Angeles Center
Mon 09:40:26 PM 36.7733 -111.9636 66° East 454 522 31,000  Level Los Angeles Center
Mon 09:41:28 PM 36.8239 -111.8214 66° East 453 521 31,000  Level Los Angeles Center
Mon 09:42:42 PM 36.8853 -111.6519 66° East 450 518 31,000  Level Los Angeles Center
Mon 09:43:36 PM 36.9281 -111.5367 65° Northeast 452 520 31,000  Level Denver Center
Mon 09:44:37 PM 36.9872 -111.3692 66° East 445 512 31,000  Level Denver Center
Mon 09:46:00 PM 37.0467 -111.1970 67° East  Level FlightAware Approximate
Mon 09:47:42 PM 37.1319 -110.9494 67° East 444 511 31,000  Level Denver Center
Mon 09:48:44 PM 37.1800 -110.8083 67° East 443 510 31,000  Level Denver Center
Mon 09:49:46 PM 37.2289 -110.6653 67° East 447 514 31,000  Level Denver Center
Mon 09:50:48 PM 37.2903 -110.4931 66° East 451 519 31,000  Level Denver Center
Mon 09:51:49 PM 37.3367 -110.3514 68° East 443 510 31,000  Level Denver Center
Mon 09:52:51 PM 37.3844 -110.2128 67° East 434 499 31,000  Level Denver Center
Mon 09:53:00 PM 37.3754 -110.2281 67° East  Level FlightAware Approximate
Mon 09:53:53 PM 37.4322 -110.0736 67° East 432 497 31,000  Level Denver Center
Mon 09:54:55 PM 37.4764 -109.9397 67° East 433 498 31,000  Level Denver Center
Mon 09:55:56 PM 37.5214 -109.8061 67° East 431 496 31,000  Level Denver Center
Mon 09:56:58 PM 37.5731 -109.6506 67° East 429 494 31,000  Level Denver Center
Mon 09:58:00 PM 37.6247 -109.4953 67° East 430 495 31,000  Level Denver Center
Mon 09:59:02 PM 37.6806 -109.3681 61° Northeast 431 496 31,000  Level Denver Center
Mon 10:00:03 PM 37.7444 -109.2214 61° Northeast 428 493 31,000  Level Denver Center
Mon 10:01:05 PM 37.7989 -109.0936 62° Northeast 431 496 31,000 242 Level Denver Center
Mon 10:02:07 PM 37.8528 -108.9647 62° Northeast 432 497 31,500 726 Climbing Denver Center
Mon 10:03:09 PM 37.9133 -108.8178 62° Northeast 423 487 32,500 677 Climbing Denver Center
Mon 10:04:11 PM 37.9664 -108.6914 62° Northeast 424 488 32,900 242 Climbing Denver Center
Mon 10:05:13 PM 38.0278 -108.5414 63° Northeast 427 491 33,000 49 Climbing Denver Center
Mon 10:06:14 PM 38.0817 -108.4058 63° Northeast 435 501 33,000  Level Denver Center
Mon 10:07:16 PM 38.1442 -108.2531 62° Northeast 435 501 33,000  Level Denver Center
Mon 10:08:30 PM 38.1958 -108.1250 63° Northeast 428 493 33,000  Level Denver Center
Mon 10:09:32 PM 38.2644 -107.9517 63° Northeast 431 496 33,000  Level Denver Center
Mon 10:10:34 PM 38.3164 -107.8247 62° Northeast 425 489 33,000  Level Denver Center
Mon 10:11:36 PM 38.3764 -107.6753 63° Northeast 425 489 33,000  Level Denver Center
Mon 10:12:37 PM 38.4275 -107.5456 63° Northeast 428 493 33,000  Level Denver Center
Mon 10:13:39 PM 38.4881 -107.3928 63° Northeast 432 497 33,000  Level Denver Center
Mon 10:14:41 PM 38.5403 -107.2606 63° Northeast 435 501 33,000  Level Denver Center
Mon 10:15:43 PM 38.5914 -107.1269 64° Northeast 433 498 33,000  Level Denver Center
Mon 10:16:44 PM 38.6439 -106.9922 63° Northeast 427 491 33,000  Level Denver Center
Mon 10:17:46 PM 38.6964 -106.8567 64° Northeast 428 493 33,000  Level Denver Center
Mon 10:18:48 PM 38.7600 -106.6931 63° Northeast 429 494 33,000  Level Denver Center
Mon 10:19:50 PM 38.8131 -106.5550 64° Northeast 432 497 33,000  Level Denver Center
Mon 10:20:51 PM 38.8656 -106.4186 64° Northeast 429 494 33,000  Level Denver Center
Mon 10:21:52 PM 38.9094 -106.3017 64° Northeast 428 493 33,000  Level Denver Center
Mon 10:22:55 PM 38.9689 -106.1450 64° Northeast 427 491 33,000  Level Denver Center
Mon 10:23:56 PM 39.0206 -106.0064 64° Northeast 430 495 33,000  Level Denver Center
Mon 10:25:10 PM 39.0725 -105.8672 64° Northeast 432 497 33,000  Level Denver Center
Mon 10:26:12 PM 39.1453 -105.6706 64° Northeast 433 498 33,000  Level Denver Center
Mon 10:27:13 PM 39.1967 -105.5322 64° Northeast 433 498 33,000  Level Denver Center
Mon 10:28:27 PM 39.2494 -105.3925 64° Northeast 435 501 33,000  Level Denver Center
Mon 10:29:29 PM 39.3131 -105.2189 65° Northeast 433 498 33,000  Level Denver Center
Mon 10:30:30 PM 39.3678 -105.0686 65° Northeast 433 498 33,000  Level Denver Center
Mon 10:31:32 PM 39.4106 -104.9239 69° East 433 498 33,000  Level Denver Center
Mon 10:32:33 PM 39.4503 -104.7758 71° East 437 503 33,000  Level Denver Center
Mon 10:33:35 PM 39.4944 -104.6181 70° East 436 502 33,000  Level Denver Center
Mon 10:34:36 PM 39.5358 -104.4725 70° East 434 499 33,000  Level Denver Center
Mon 10:35:49 PM 39.5756 -104.3244 71° East 437 503 33,000  Level Denver Center
Mon 10:36:51 PM 39.6258 -104.1433 70° East 436 502 33,000  Level Denver Center
Mon 10:37:53 PM 39.6700 -103.9833 70° East 439 505 33,000  Level Denver Center
Mon 10:38:54 PM 39.7106 -103.8350 70° East 438 504 33,000  Level Denver Center
Mon 10:39:56 PM 39.7481 -103.6947 71° East 434 499 33,000  Level Denver Center
Mon 10:40:57 PM 39.7947 -103.5286 70° East 437 503 33,000  Level Denver Center
Mon 10:41:58 PM 39.8325 -103.3833 71° East 445 512 33,000  Level Denver Center
Mon 10:43:00 PM 39.8781 -103.2133 71° East 447 514 33,000  Level Denver Center
Mon 10:44:01 PM 39.9156 -103.0664 72° East 448 516 33,000  Level Denver Center
Mon 10:45:02 PM 39.9542 -102.9208 71° East 445 512 33,000  Level Denver Center
Mon 10:46:04 PM 39.9922 -102.7744 71° East 446 513 33,000  Level Denver Center
Mon 10:47:05 PM 40.0364 -102.6014 72° East 450 518 33,000  Level Denver Center
Mon 10:48:07 PM 40.0797 -102.4269 72° East 452 520 33,000  Level Denver Center
Mon 10:49:08 PM 40.1169 -102.2786 72° East 451 519 33,000  Level Denver Center
Mon 10:50:09 PM 40.1556 -102.1289 71° East 455 524 33,000  Level Denver Center
Mon 10:51:10 PM 40.1989 -101.9544 72° East 453 521 33,000  Level Denver Center
Mon 10:52:12 PM 40.2358 -101.8039 72° East 455 524 33,000  Level Denver Center
Mon 10:53:13 PM 40.2789 -101.6300 72° East 451 519 33,000  Level Denver Center
Mon 10:54:14 PM 40.3164 -101.4792 72° East 455 524 33,000  Level Denver Center
Mon 10:55:15 PM 40.3522 -101.3278 73° East 456 525 33,000  Level Denver Center
Mon 10:56:17 PM 40.3942 -101.1533 72° East 451 519 33,000  Level Denver Center
Mon 10:57:18 PM 40.4303 -101.0047 72° East 450 518 33,000  Level Denver Center
Mon 10:58:19 PM 40.4706 -100.8328 73° East 444 511 33,000  Level Denver Center
Mon 10:59:20 PM 40.5050 -100.6861 73° East 444 511 33,000  Level Denver Center
Mon 11:00:22 PM 40.5447 -100.5181 73° East 436 502 33,000  Level Denver Center
Mon 11:01:23 PM 40.5786 -100.3725 73° East 438 504 33,000  Level Denver Center
Mon 11:02:24 PM 40.6131 -100.2269 73° East 438 504 33,000  Level Denver Center
Mon 11:03:25 PM 40.6514 -100.0569 73° East 437 503 33,000  Level Denver Center
Mon 11:04:27 PM 40.6847 -99.9092 73° East 440 506 33,000  Level Denver Center
Mon 11:05:28 PM 40.7217 -99.7500 73° East 440 506 33,000  Level Denver Center
Mon 11:06:29 PM 40.7564 -99.5956 73° East 439 505 33,000  Level Denver Center
Mon 11:06:58 PM 40.7775 -99.5036 73° East 440 506 33,000  Level Minneapolis Center
Mon 11:08:00 PM 40.8108 -99.3489 74° East 440 506 33,000  Level Minneapolis Center
Mon 11:08:32 PM 40.8236 -99.2864 75° East 439 505 33,000  Level Denver Center
Mon 11:09:33 PM 40.8600 -99.1206 74° East 441 507 33,000  Level Denver Center
Mon 11:10:02 PM 40.8778 -99.0392 74° East 440 506 33,000  Level Minneapolis Center
Mon 11:10:34 PM 40.8978 -98.9461 74° East 442 509 33,000  Level Denver Center
Mon 11:11:35 PM 40.9297 -98.7958 74° East 444 511 33,000  Level Denver Center
Mon 11:12:05 PM 40.9453 -98.7244 74° East 446 513 33,000  Level Minneapolis Center
Mon 11:13:06 PM 40.9797 -98.5656 74° East 448 516 33,000  Level Minneapolis Center
Mon 11:14:08 PM 41.0183 -98.3836 74° East 449 517 33,000  Level Minneapolis Center
Mon 11:15:09 PM 41.0511 -98.2244 75° East 451 519 33,000  Level Minneapolis Center
Mon 11:16:11 PM 41.0847 -98.0653 74° East 450 518 33,000  Level Minneapolis Center
Mon 11:17:12 PM 41.1178 -97.9042 75° East 452 520 33,000  Level Minneapolis Center
Mon 11:18:13 PM 41.1511 -97.7422 75° East 455 524 33,000  Level Minneapolis Center
Mon 11:19:16 PM 41.1839 -97.5797 75° East 456 525 33,000  Level Minneapolis Center
Mon 11:20:30 PM 41.2172 -97.4158 75° East 459 528 33,000  Level Minneapolis Center
Mon 11:21:31 PM 41.2536 -97.2369 75° East 468 539 33,000  Level Minneapolis Center
Mon 11:22:32 PM 41.2928 -97.0386 75° East 464 534 33,000  Level Minneapolis Center
Mon 11:23:34 PM 41.3233 -96.8886 75° East 426 490 33,000  Level Minneapolis Center
Mon 11:24:35 PM 41.3528 -96.7336 76° East 431 496 33,000  Level Minneapolis Center
Mon 11:25:36 PM 41.3894 -96.5472 75° East 433 498 33,000  Level Minneapolis Center
Mon 11:26:38 PM 41.4200 -96.3894 75° East 438 504 33,000  Level Minneapolis Center
Mon 11:27:39 PM 41.4481 -96.2403 76° East 445 512 33,000  Level Minneapolis Center
Mon 11:28:40 PM 41.4778 -96.0806 76° East 444 511 33,000  Level Minneapolis Center
Mon 11:29:42 PM 41.5078 -95.9211 76° East 443 510 33,000  Level Minneapolis Center
Mon 11:30:43 PM 41.5369 -95.7617 76° East 440 506 33,000  Level Minneapolis Center
Mon 11:31:44 PM 41.5708 -95.5811 76° East 440 506 33,000  Level Minneapolis Center
Mon 11:32:45 PM 41.6000 -95.4197 76° East 446 513 33,000  Level Minneapolis Center
Mon 11:33:59 PM 41.6292 -95.2603 76° East 443 510 33,000  Level Minneapolis Center
Mon 11:35:00 PM 41.6642 -95.0692 76° East 441 507 33,000  Level Minneapolis Center
Mon 11:36:01 PM 41.6911 -94.9081 77° East 444 511 33,000  Level Minneapolis Center
Mon 11:37:02 PM 41.7194 -94.7469 77° East 445 512 33,000  Level Minneapolis Center
Mon 11:38:03 PM 41.7431 -94.6178 76° East 447 514 33,000  Level Minneapolis Center
Mon 11:39:04 PM 41.7703 -94.4542 77° East 450 518 33,000  Level Minneapolis Center
Mon 11:40:05 PM 41.8047 -94.2589 77° East 449 517 33,000  Level Minneapolis Center
Mon 11:41:06 PM 41.8322 -94.0947 77° East 452 520 33,000  Level Minneapolis Center
Mon 11:42:07 PM 41.8664 -93.8978 77° East 453 521 33,000  Level Minneapolis Center
Mon 11:43:08 PM 41.8881 -93.7603 78° East 454 522 33,000  Level Minneapolis Center
Mon 11:44:09 PM 41.9203 -93.5636 78° East 452 520 33,000  Level Minneapolis Center
Mon 11:45:10 PM 41.9447 -93.4153 77° East 456 525 33,000  Level Minneapolis Center
Mon 11:46:11 PM 42.0086 -93.2625 61° Northeast 481 554 33,000  Level Minneapolis Center
Mon 11:47:12 PM 42.0486 -93.1061 71° East 453 521 33,000  Level Minneapolis Center
Mon 11:48:13 PM 42.0664 -92.9136 83° East 439 505 33,000  Level Minneapolis Center
Mon 11:49:14 PM 42.0833 -92.7531 82° East 436 502 33,000  Level Chicago Center
Mon 11:50:15 PM 42.0997 -92.5922 82° East 438 504 33,000  Level Chicago Center
Mon 11:51:15 PM 42.1139 -92.4328 83° East 435 501 33,000  Level Chicago Center
Mon 11:52:16 PM 42.1306 -92.2753 82° East 433 498 33,000  Level Chicago Center
Mon 11:53:17 PM 42.1597 -92.1172 76° East 441 507 33,000  Level Chicago Center
Mon 11:54:19 PM 42.1856 -91.9597 77° East 435 501 33,000  Level Chicago Center
Mon 11:55:19 PM 42.2075 -91.7989 80° East 440 506 33,000  Level Chicago Center
Mon 11:56:20 PM 42.2367 -91.6069 78° East 443 510 33,000  Level Chicago Center
Mon 11:57:21 PM 42.2606 -91.4444 79° East 448 516 33,000  Level Chicago Center
Mon 11:58:22 PM 42.2839 -91.2789 79° East 454 522 33,000  Level Chicago Center
Mon 11:59:22 PM 42.3069 -91.1164 79° East 453 521 33,000  Level Chicago Center
Tue 12:00:25 AM 42.3322 -90.9567 78° East 443 510 33,000  Level Chicago Center
Tue 12:01:26 AM 42.3572 -90.7969 78° East 440 506 33,000  Level Chicago Center
Tue 12:02:27 AM 42.3875 -90.6050 78° East 443 510 33,000  Level Chicago Center
Tue 12:03:28 AM 42.4128 -90.4419 78° East 449 517 33,000  Level Chicago Center
Tue 12:04:29 AM 42.4306 -90.2786 82° East 446 513 33,000  Level Chicago Center
Tue 12:05:29 AM 42.4497 -90.1164 81° East 442 509 33,000  Level Chicago Center
Tue 12:06:30 AM 42.4669 -89.9572 82° East 434 499 33,000  Level Chicago Center
Tue 12:07:31 AM 42.4836 -89.7950 82° East 428 493 33,000 -397 Level Chicago Center
Tue 12:08:31 AM 42.5014 -89.6350 81° East 431 496 32,200 -843 Descending Chicago Center
Tue 12:09:32 AM 42.5169 -89.4792 82° East 420 483 31,300 -590 Descending Chicago Center
Tue 12:10:33 AM 42.5344 -89.3208 81° East 424 488 31,000 -148 Descending Chicago Center
Tue 12:11:34 AM 42.5506 -89.1597 82° East 432 497 31,000  Level Chicago Center
Tue 12:12:34 AM 42.5486 -89.0056 91° East 419 482 31,000  Level Chicago Center
Tue 12:13:35 AM 42.4642 -88.9594 158° South 351 404 31,000  Level Chicago Center
Tue 12:14:36 AM 42.3753 -89.0428 215° Southwest 353 406 31,000  Level Chicago Center
Tue 12:15:36 AM 42.3792 -89.1847 272° West 392 451 31,000  Level Chicago Center
Tue 12:16:37 AM 42.4158 -89.3272 289° West 402 463 31,000  Level Chicago Center
Tue 12:17:38 AM 42.4511 -89.4719 288° West 405 466 31,000  Level Chicago Center
Tue 12:18:38 AM 42.4864 -89.6169 288° West 405 466 31,000  Level Chicago Center
Tue 12:19:39 AM 42.5739 -89.7150 320° Northwest 449 517 31,000  Level Chicago Center
Tue 12:20:40 AM 42.6800 -89.6283 31° Northeast 475 547 31,000  Level Chicago Center
Tue 12:21:40 AM 42.6581 -89.4906 102° East 386 444 31,000  Level Chicago Center
Tue 12:22:41 AM 42.6181 -89.3569 112° Southeast 385 443 31,000  Level Chicago Center
Tue 12:23:42 AM 42.5839 -89.2161 108° East 392 451 31,000 -248 Level Chicago Center
Tue 12:24:42 AM 42.5494 -89.0756 108° East 392 451 30,500 -744 Descending Chicago Center
Tue 12:25:43 AM 42.4647 -89.0186 154° Southeast 349 402 29,500 -984 Descending Chicago Center
Tue 12:26:44 AM 42.3914 -89.0839 213° Southwest 331 381 28,500 -744 Descending Chicago Center
Tue 12:27:44 AM 42.3911 -89.2197 270° West 373 429 28,000 -248 Descending Chicago Center
Tue 12:28:45 AM 42.4264 -89.3542 290° West 379 436 28,000  Level Chicago Center
Tue 12:29:46 AM 42.4581 -89.4867 288° West 370 426 28,000 -545 Level Chicago Center
Tue 12:30:46 AM 42.4892 -89.6169 288° West 365 420 26,900 -992 Descending Chicago Center
Tue 12:31:47 AM 42.5742 -89.7008 324° Northwest 415 478 26,000 -836 Descending Chicago Center
Tue 12:32:48 AM 42.6600 -89.6047 39° Northeast 413 475 25,200 -843 Descending Chicago Center
Tue 12:33:48 AM 42.6444 -89.4694 99° East 361 415 24,300 -793 Descending Chicago Center
Tue 12:34:49 AM 42.6153 -89.3392 107° East 360 414 23,600 -694 Descending Chicago Center
Tue 12:35:49 AM 42.5839 -89.2158 109° East 350 403 22,900 -744 Descending Chicago Center
Tue 12:36:50 AM 42.5472 -89.0733 109° East 344 396 22,100 -738 Descending Chicago Center
Tue 12:37:51 AM 42.4750 -89.0211 152° Southeast 301 346 21,400 -843 Descending Chicago Center
Tue 12:38:51 AM 42.4086 -89.0739 210° Southwest 301 346 20,400 -1,537 Descending Chicago Center
Tue 12:39:52 AM 42.4619 -89.1722 306° West 365 420 18,300 -1,835 Descending Chicago Center
Tue 12:40:52 AM 42.5475 -89.1050 30° Northeast 386 444 16,700 -1,240 Descending Chicago Center
Tue 12:41:53 AM 42.5292 -88.9733 101° East 355 409 15,800 -1,869 Descending Chicago Center
Tue 12:42:54 AM 42.4936 -88.8511 111° Southeast 351 404 12,900 -2,380 Descending Chicago Center
Tue 12:43:54 AM 42.4539 -88.7339 115° Southeast 345 397 11,000 -1,587 Descending Chicago Center
Tue 12:44:55 AM 42.4175 -88.6286 115° Southeast 320 368 9,700 -934 Descending Chicago Center
Tue 12:45:56 AM 42.3856 -88.5306 114° Southeast 296 341 9,100 -744 Descending Chicago Center
Tue 12:46:56 AM 42.3558 -88.4303 112° Southeast 290 334 8,200 -992 Descending Chicago Center
Tue 12:47:57 AM 42.3233 -88.3258 113° Southeast 289 333 7,100 -595 Descending Chicago Center
Tue 12:48:57 AM 42.2744 -88.2542 133° Southeast 273 314 7,000 -149 Descending Chicago Center
Tue 12:49:58 AM 42.2167 -88.1878 140° Southeast 273 314 6,800 -984 Descending Chicago Center
Tue 12:50:59 AM 42.1586 -88.1236 141° Southeast 271 312 5,000 -1,333 Descending Chicago Center
Tue 12:51:55 AM 42.1000 -88.0667 144° Southeast 218 251 4,200 -857 Descending Chicago TRACON

Login

Don't have an account? Register now (free) for customized features, flight alerts, and more!